Hickson, North Dakota
Current Conditions -  °F | °C
As of 5:51 PM on Sunday 23 Nov 2014 (Local Time) from KJKJ Reporting Station
Overcast Overcast  
Wind Chill: 20°   Ceiling: 3100
Heat Index: 30°   Visibility: 10mi
Dew Point: 25°   Wind: 13mph
Humidity: 80%   Direction: 290°WNW
Pressure: 29.51"   Gusts: NA
Location:  46.7039°N, 96.8572°W
Report Text: KJKJ 232351Z AUTO 29011KT 10SM BKN031 OVC038 M01/M04 A2951 RMK AO2
Loading
Personal Weather Stations






























Interactive Weather Map New forecast layout! Learn more

10-Day Weather Forecast

Advertisements
Track Severe Weather on mobile